Time;durP1;ratioP1;P1;durP2;ratioP2;P2;SDS_P1;SDS_P2;PMS_P1;PMS_P2;Temp;Humidity;BMP_temperature;BMP_pressure;BME280_temperature;BME280_humidity;BME280_pressure;Samples;Min_cycle;Max_cycle;Signal;HPM_P1;HPM_P2
2022/11/05 00:11:16;;;;;;;11.73;7.73;;;8.20;99.90;;;;;;4918317;29;20514;-72
2022/11/05 00:16:45;;;;;;;9.37;7.90;;;8.20;99.90;;;;;;4905889;29;20450;-72
2022/11/05 00:19:13;;;;;;;11.30;7.87;;;8.20;99.90;;;;;;4918569;29;20424;-72
2022/11/05 00:27:13;;;;;;;12.30;7.53;;;8.10;99.90;;;;;;4921788;29;20427;-72
2022/11/05 00:29:42;;;;;;;9.50;7.07;;;8.10;99.90;;;;;;4921345;29;20472;-72
2022/11/05 00:32:10;;;;;;;10.80;7.20;;;8.10;99.90;;;;;;4921429;29;20467;-72
2022/11/05 00:34:38;;;;;;;9.03;6.77;;;8.10;99.90;;;;;;4921633;29;20452;-72
2022/11/05 00:37:06;;;;;;;8.90;6.60;;;8.10;99.90;;;;;;4921530;29;20451;-72
2022/11/05 00:39:34;;;;;;;11.53;7.53;;;8.10;99.90;;;;;;4921409;29;20475;-72
2022/11/05 00:45:03;;;;;;;10.23;6.93;;;8.00;99.90;;;;;;4921037;29;20439;-72
2022/11/05 00:50:19;;;;;;;11.50;6.80;;;8.00;99.90;;;;;;4920387;29;20461;-72
2022/11/05 00:52:56;;;;;;;9.50;6.50;;;8.00;99.90;;;;;;4920329;29;20882;-73
2022/11/05 00:55:32;;;;;;;12.17;6.77;;;8.00;99.90;;;;;;4921174;29;20524;-72
2022/11/05 00:58:01;;;;;;;11.40;7.00;;;7.90;99.90;;;;;;4921058;29;20431;-72
2022/11/05 01:00:32;;;;;;;9.40;6.53;;;7.90;99.90;;;;;;4919536;29;20964;-72
2022/11/05 01:03:02;;;;;;;10.47;6.80;;;7.90;99.90;;;;;;4920127;29;21033;-72
2022/11/05 01:05:31;;;;;;;13.33;6.93;;;7.90;99.90;;;;;;4920396;29;20521;-73
2022/11/05 01:08:00;;;;;;;13.77;7.23;;;7.90;99.90;;;;;;4919982;29;20493;-73
2022/11/05 01:10:29;;;;;;;10.93;6.80;;;7.80;99.90;;;;;;4919717;29;20477;-72
2022/11/05 01:12:57;;;;;;;10.73;6.20;;;7.80;99.90;;;;;;4918809;29;20665;-72
2022/11/05 01:15:26;;;;;;;8.03;5.93;;;7.80;99.90;;;;;;4920373;29;20458;-72
2022/11/05 01:17:55;;;;;;;8.80;6.50;;;7.80;99.90;;;;;;4918565;29;20500;-72
2022/11/05 01:20:23;;;;;;;10.73;6.83;;;7.80;99.90;;;;;;4918843;29;20455;-72
2022/11/05 01:22:51;;;;;;;10.40;6.57;;;7.70;99.90;;;;;;4919838;29;20982;-72
2022/11/05 01:25:19;;;;;;;10.00;6.50;;;7.70;99.90;;;;;;4919082;29;20522;-72
2022/11/05 01:27:47;;;;;;;16.67;6.40;;;7.70;99.90;;;;;;4920313;29;20451;-72
2022/11/05 01:30:16;;;;;;;9.40;6.53;;;7.70;99.90;;;;;;4919908;29;20528;-72
2022/11/05 01:32:44;;;;;;;9.53;6.60;;;7.70;99.90;;;;;;4920235;29;20470;-72
2022/11/05 01:35:16;;;;;;;11.00;6.00;;;7.60;99.90;;;;;;4919638;29;20936;-72
2022/11/05 01:37:44;;;;;;;8.23;5.73;;;7.60;99.90;;;;;;4919986;29;20778;-72
2022/11/05 01:40:14;;;;;;;9.70;6.60;;;7.60;99.90;;;;;;4919865;29;20489;-72
2022/11/05 01:42:42;;;;;;;11.10;6.07;;;7.60;99.90;;;;;;4918369;29;20483;-72
2022/11/05 01:45:17;;;;;;;9.20;6.70;;;7.60;99.90;;;;;;4919769;29;20450;-72
2022/11/05 01:47:57;;;;;;;12.00;6.40;;;7.60;99.90;;;;;;4919991;29;20427;-72
2022/11/05 01:50:50;;;;;;;8.30;5.80;;;7.50;99.90;;;;;;4918823;29;20471;-72
2022/11/05 01:53:25;;;;;;;10.50;6.73;;;7.50;99.90;;;;;;4918607;29;20468;-72
2022/11/05 01:55:57;;;;;;;12.47;6.43;;;7.50;99.90;;;;;;4919363;29;20476;-72
2022/11/05 01:58:31;;;;;;;9.10;6.00;;;7.50;99.90;;;;;;4918158;29;20486;-72
2022/11/05 02:01:00;;;;;;;8.57;5.87;;;7.50;99.90;;;;;;4920004;29;20425;-72
2022/11/05 02:03:29;;;;;;;9.47;6.50;;;7.40;99.90;;;;;;4919736;29;20497;-72
2022/11/05 02:06:00;;;;;;;15.93;6.80;;;7.40;99.90;;;;;;4918184;29;20958;-73
2022/11/05 02:08:46;;;;;;;12.57;6.23;;;7.40;99.90;;;;;;4918452;29;20470;-72
2022/11/05 02:11:18;;;;;;;11.10;5.50;;;7.40;99.90;;;;;;4919576;29;20489;-72
2022/11/05 02:13:47;;;;;;;8.83;5.00;;;7.40;99.90;;;;;;4919575;29;20421;-72
2022/11/05 02:16:23;;;;;;;8.33;5.10;;;7.40;99.90;;;;;;4919388;29;20450;-72
2022/11/05 02:18:58;;;;;;;9.90;4.90;;;7.30;99.90;;;;;;4919480;29;20844;-72
2022/11/05 02:22:03;;;;;;;9.87;5.50;;;7.30;99.90;;;;;;4919200;29;20519;-72
2022/11/05 02:24:56;;;;;;;8.10;5.13;;;7.30;99.90;;;;;;4918128;29;20464;-72
2022/11/05 02:27:45;;;;;;;12.10;5.83;;;7.30;99.90;;;;;;4917776;29;20871;-72
2022/11/05 02:30:42;;;;;;;11.80;6.10;;;7.20;99.90;;;;;;4919110;29;20502;-72
2022/11/05 02:33:28;;;;;;;8.17;4.87;;;7.30;99.90;;;;;;4914369;29;20480;-72
2022/11/05 02:36:30;;;;;;;9.00;5.37;;;7.20;99.90;;;;;;4918961;29;20436;-72
2022/11/05 02:39:10;;;;;;;15.90;6.00;;;7.20;99.90;;;;;;4918961;29;20503;-72
2022/11/05 02:41:45;;;;;;;11.30;5.30;;;7.20;99.90;;;;;;4918948;29;20466;-72
2022/11/05 02:44:22;;;;;;;10.30;4.67;;;7.20;99.90;;;;;;4918911;29;20428;-73
2022/11/05 02:46:59;;;;;;;8.20;4.90;;;7.20;99.90;;;;;;4918355;29;20493;-72
2022/11/05 02:49:39;;;;;;;8.63;5.30;;;7.20;99.90;;;;;;4919792;29;20431;-73
2022/11/05 02:52:14;;;;;;;10.67;4.97;;;7.20;99.90;;;;;;4922513;29;20492;-73
2022/11/05 02:54:46;;;;;;;10.60;4.97;;;7.10;99.90;;;;;;4919875;29;20433;-73
2022/11/05 02:57:14;;;;;;;11.20;6.33;;;7.10;99.90;;;;;;4919521;29;20422;-73
2022/11/05 02:59:42;;;;;;;9.00;6.23;;;7.10;99.90;;;;;;4918225;29;20454;-73
2022/11/05 03:02:12;;;;;;;8.70;5.80;;;7.10;99.90;;;;;;4917419;29;20462;-72
2022/11/05 03:04:41;;;;;;;9.17;5.90;;;7.10;99.90;;;;;;4919183;29;20435;-72
2022/11/05 03:07:38;;;;;;;7.30;6.03;;;7.10;99.90;;;;;;4917533;29;21020;-72
2022/11/05 03:10:18;;;;;;;9.40;5.70;;;7.10;99.90;;;;;;4918664;29;20835;-73
2022/11/05 03:13:06;;;;;;;8.63;6.17;;;7.10;99.90;;;;;;4918540;29;20484;-72
2022/11/05 03:15:48;;;;;;;8.10;5.30;;;7.10;99.90;;;;;;4917303;29;20825;-73
2022/11/05 03:18:24;;;;;;;11.57;5.20;;;7.00;99.90;;;;;;4918784;29;20435;-73
2022/11/05 03:21:00;;;;;;;10.40;5.90;;;7.00;99.90;;;;;;4918645;29;20427;-73
2022/11/05 03:23:35;;;;;;;11.40;5.20;;;7.00;99.90;;;;;;4918735;29;20484;-73
2022/11/05 03:26:07;;;;;;;6.90;5.23;;;7.00;99.90;;;;;;4918417;29;20429;-72
2022/11/05 03:28:39;;;;;;;8.73;5.83;;;7.00;99.90;;;;;;4918909;29;20427;-73
2022/11/05 03:31:09;;;;;;;11.33;6.40;;;7.00;99.90;;;;;;4918417;29;20465;-72
2022/11/05 03:33:41;;;;;;;8.53;5.53;;;7.00;99.90;;;;;;4917437;29;20863;-73
2022/11/05 03:36:15;;;;;;;11.57;6.47;;;6.90;99.90;;;;;;4918481;29;20453;-73
2022/11/05 03:38:47;;;;;;;9.73;5.80;;;6.90;99.90;;;;;;4918269;29;20440;-73
2022/11/05 03:41:17;;;;;;;8.63;5.50;;;6.90;99.90;;;;;;4918401;29;20458;-73
2022/11/05 03:43:48;;;;;;;8.50;5.37;;;6.90;99.90;;;;;;4918389;29;20440;-73
2022/11/05 03:46:21;;;;;;;10.10;5.93;;;6.90;99.90;;;;;;4917562;29;21035;-72
2022/11/05 03:48:54;;;;;;;8.97;5.80;;;6.90;99.90;;;;;;4917600;29;20426;-73
2022/11/05 03:51:30;;;;;;;11.63;5.40;;;6.90;99.90;;;;;;4917478;29;20482;-73
2022/11/05 03:54:00;;;;;;;10.20;5.27;;;6.90;99.90;;;;;;4918614;29;20420;-73
2022/11/05 03:56:34;;;;;;;10.97;6.40;;;6.80;99.90;;;;;;4917223;29;20446;-73
2022/11/05 03:59:04;;;;;;;8.53;5.03;;;6.80;99.90;;;;;;4918764;29;20430;-73
2022/11/05 04:01:34;;;;;;;9.20;5.30;;;6.80;99.90;;;;;;4920856;29;20485;-73
2022/11/05 04:04:05;;;;;;;7.57;5.33;;;6.80;99.90;;;;;;4921193;29;20986;-73
2022/11/05 04:14:50;;;;;;;9.47;4.33;;;6.80;99.90;;;;;;4920413;29;20449;-73
2022/11/05 04:17:17;;;;;;;7.20;4.67;;;6.80;99.90;;;;;;4921559;29;20442;-73
2022/11/05 04:25:22;;;;;;;9.13;5.43;;;6.70;99.90;;;;;;4921987;29;20435;-73
2022/11/05 04:27:50;;;;;;;11.30;5.70;;;6.70;99.90;;;;;;4921440;29;20480;-72
2022/11/05 04:30:18;;;;;;;9.60;5.83;;;6.70;99.90;;;;;;4921130;29;20445;-72
2022/11/05 04:32:57;;;;;;;15.20;5.80;;;6.70;99.90;;;;;;4921376;29;20480;-73
2022/11/05 04:35:27;;;;;;;9.87;5.77;;;6.70;99.90;;;;;;4921135;29;20445;-73
2022/11/05 04:37:56;;;;;;;7.63;5.93;;;6.70;99.90;;;;;;4921597;29;20998;-73
2022/11/05 04:40:24;;;;;;;9.03;5.83;;;6.70;99.90;;;;;;4920062;29;20449;-73
2022/11/05 04:42:54;;;;;;;8.77;5.83;;;6.60;99.90;;;;;;4921169;29;20932;-72
2022/11/05 04:45:22;;;;;;;9.67;5.50;;;6.60;99.90;;;;;;4919855;29;20829;-73
2022/11/05 04:47:50;;;;;;;9.53;5.67;;;6.60;99.90;;;;;;4920906;29;20458;-73
2022/11/05 04:50:18;;;;;;;13.50;6.23;;;6.60;99.90;;;;;;4921178;29;20444;-72
2022/11/05 04:52:48;;;;;;;6.13;4.90;;;6.60;99.90;;;;;;4920824;29;20482;-72
2022/11/05 04:55:16;;;;;;;11.70;6.33;;;6.50;99.90;;;;;;4920872;29;20522;-72
2022/11/05 04:57:47;;;;;;;9.50;6.37;;;6.50;99.90;;;;;;4920592;29;20465;-73
2022/11/05 05:00:15;;;;;;;7.50;6.17;;;6.50;99.90;;;;;;4919549;29;20442;-72
2022/11/05 05:02:44;;;;;;;9.20;6.53;;;6.50;99.90;;;;;;4920490;29;21037;-73
2022/11/05 05:05:13;;;;;;;10.30;6.27;;;6.50;99.90;;;;;;4920799;29;20979;-74
2022/11/05 05:07:41;;;;;;;8.07;6.03;;;6.40;99.90;;;;;;4920778;29;20530;-72
2022/11/05 05:10:11;;;;;;;11.30;6.90;;;6.40;99.90;;;;;;4920134;29;20454;-73
2022/11/05 05:12:39;;;;;;;11.37;6.63;;;6.40;99.90;;;;;;4918918;29;20488;-72
2022/11/05 05:15:08;;;;;;;12.57;7.13;;;6.40;99.90;;;;;;4920588;29;20445;-72
2022/11/05 05:17:36;;;;;;;14.97;7.43;;;6.40;99.90;;;;;;4920516;29;20482;-73
2022/11/05 05:22:54;;;;;;;15.20;6.87;;;6.30;99.90;;;;;;4919049;29;20469;-72
2022/11/05 05:25:24;;;;;;;8.30;6.70;;;6.40;99.90;;;;;;4920731;29;20449;-73
2022/11/05 05:27:52;;;;;;;10.70;6.53;;;6.30;99.90;;;;;;4919222;29;20453;-73
2022/11/05 05:30:20;;;;;;;9.33;7.20;;;6.30;99.90;;;;;;4920439;29;20483;-73
2022/11/05 05:32:48;;;;;;;10.20;7.80;;;6.30;99.90;;;;;;4919984;29;20480;-72
2022/11/05 05:35:16;;;;;;;9.47;6.63;;;6.30;99.90;;;;;;4918976;29;20809;-73
2022/11/05 05:37:44;;;;;;;8.83;6.90;;;6.30;99.90;;;;;;4918989;29;20501;-73
2022/11/05 05:40:13;;;;;;;10.80;6.40;;;6.30;99.90;;;;;;4919933;29;21009;-73
2022/11/05 05:42:42;;;;;;;8.47;6.40;;;6.30;99.90;;;;;;4918618;29;20480;-73
2022/11/05 05:45:12;;;;;;;11.50;6.50;;;6.30;99.90;;;;;;4918937;29;20458;-73
2022/11/05 05:47:40;;;;;;;9.33;6.17;;;6.30;99.90;;;;;;4919789;29;20449;-73
2022/11/05 05:50:08;;;;;;;9.77;6.70;;;6.20;99.90;;;;;;4920176;29;20450;-73
2022/11/05 05:52:36;;;;;;;10.20;6.80;;;6.20;99.90;;;;;;4919499;29;21037;-73
2022/11/05 05:55:05;;;;;;;13.90;8.43;;;6.20;99.90;;;;;;4920326;29;20445;-73
2022/11/05 05:57:34;;;;;;;8.23;6.30;;;6.20;99.90;;;;;;4918679;29;20449;-73
2022/11/05 06:00:04;;;;;;;8.23;6.50;;;6.10;99.90;;;;;;4919842;29;20444;-73
2022/11/05 06:02:38;;;;;;;9.27;6.73;;;6.10;99.90;;;;;;4919424;29;20460;-73
2022/11/05 06:05:07;;;;;;;9.53;7.40;;;6.10;99.90;;;;;;4919654;29;20844;-73
2022/11/05 06:07:35;;;;;;;8.53;6.80;;;6.10;99.90;;;;;;4919568;29;20445;-73
2022/11/05 06:10:05;;;;;;;11.60;7.60;;;6.10;99.90;;;;;;4919616;29;20559;-73
2022/11/05 06:12:33;;;;;;;8.57;6.83;;;6.10;99.90;;;;;;4919317;29;20491;-73
2022/11/05 06:15:03;;;;;;;9.80;7.03;;;6.10;99.90;;;;;;4918027;29;20449;-73
2022/11/05 06:17:33;;;;;;;11.50;6.87;;;6.00;99.90;;;;;;4919528;29;21014;-73
2022/11/05 06:20:01;;;;;;;11.50;8.00;;;6.00;99.90;;;;;;4919419;29;20839;-73
2022/11/05 06:22:29;;;;;;;8.17;6.63;;;6.00;99.90;;;;;;4917272;29;20468;-73
2022/11/05 06:24:57;;;;;;;9.77;7.87;;;6.00;99.90;;;;;;4919288;29;20437;-73
2022/11/05 06:27:25;;;;;;;8.77;7.60;;;6.00;99.90;;;;;;4918090;29;20458;-73
2022/11/05 06:29:53;;;;;;;11.03;8.00;;;6.00;99.90;;;;;;4918819;29;20518;-73
2022/11/05 06:32:23;;;;;;;10.53;8.43;;;6.10;99.90;;;;;;4918886;29;20460;-73
2022/11/05 06:34:51;;;;;;;11.17;8.70;;;6.00;99.90;;;;;;4922955;29;20441;-72
2022/11/05 06:37:19;;;;;;;13.47;9.10;;;6.00;99.90;;;;;;4920255;29;20449;-73
2022/11/05 06:39:47;;;;;;;11.30;9.20;;;6.00;99.90;;;;;;4919424;29;20946;-72
2022/11/05 06:42:15;;;;;;;10.57;9.50;;;6.00;99.90;;;;;;4919397;29;20468;-72
2022/11/05 06:44:46;;;;;;;12.27;10.10;;;6.10;99.90;;;;;;4919284;29;20420;-72
2022/11/05 06:47:15;;;;;;;13.80;10.00;;;6.10;99.90;;;;;;4919433;29;20488;-72
2022/11/05 06:49:44;;;;;;;12.10;9.30;;;6.10;99.90;;;;;;4919445;29;20441;-72
2022/11/05 06:52:13;;;;;;;11.80;9.93;;;6.10;99.90;;;;;;4919506;29;20487;-72
2022/11/05 06:54:42;;;;;;;12.63;10.30;;;6.10;99.90;;;;;;4918947;29;20978;-73
2022/11/05 06:57:11;;;;;;;11.00;9.43;;;6.10;99.90;;;;;;4919409;29;20441;-72
2022/11/05 06:59:40;;;;;;;13.90;9.50;;;6.20;99.90;;;;;;4917548;29;20460;-73
2022/11/05 07:02:11;;;;;;;11.77;9.63;;;6.10;99.90;;;;;;4918726;29;20488;-73
2022/11/05 07:04:39;;;;;;;10.97;9.77;;;6.20;99.90;;;;;;4918885;29;20421;-74
2022/11/05 07:07:09;;;;;;;15.00;10.00;;;6.20;99.90;;;;;;4918542;29;20432;-73
2022/11/05 07:09:39;;;;;;;10.23;8.90;;;6.20;99.90;;;;;;4917904;29;20452;-73
2022/11/05 07:12:07;;;;;;;12.87;10.40;;;6.20;99.90;;;;;;4918091;29;20457;-72
2022/11/05 07:14:35;;;;;;;11.57;9.90;;;6.30;99.90;;;;;;4917967;29;20484;-73
2022/11/05 07:17:04;;;;;;;11.77;9.30;;;6.30;99.90;;;;;;4918136;29;20436;-72
2022/11/05 07:19:32;;;;;;;8.90;7.40;;;6.30;99.90;;;;;;4917067;29;21014;-72
2022/11/05 07:22:00;;;;;;;11.53;9.90;;;6.30;99.90;;;;;;4918024;29;20464;-72
2022/11/05 07:24:29;;;;;;;12.10;10.10;;;6.30;99.90;;;;;;4918096;29;20465;-73
2022/11/05 07:26:57;;;;;;;10.80;9.43;;;6.30;99.90;;;;;;4916484;29;20501;-73
2022/11/05 07:29:25;;;;;;;10.63;9.63;;;6.40;99.90;;;;;;4917673;29;20451;-72
2022/11/05 07:31:53;;;;;;;10.93;9.10;;;6.40;99.90;;;;;;4917597;29;20974;-72
2022/11/05 07:34:22;;;;;;;10.33;9.13;;;6.40;99.90;;;;;;4918071;29;20515;-72
2022/11/05 07:36:50;;;;;;;11.20;9.47;;;6.40;99.90;;;;;;4916776;29;20977;-72
2022/11/05 07:39:18;;;;;;;9.73;8.70;;;6.50;99.90;;;;;;4918206;29;20500;-72
2022/11/05 07:41:47;;;;;;;12.10;9.10;;;6.50;99.90;;;;;;4917761;29;20496;-72
2022/11/05 07:44:16;;;;;;;10.87;8.93;;;6.50;99.90;;;;;;4917538;29;20464;-72
2022/11/05 07:46:44;;;;;;;10.70;9.70;;;6.50;99.90;;;;;;4916281;29;20449;-72
2022/11/05 07:49:12;;;;;;;13.07;9.70;;;6.60;99.90;;;;;;4917222;29;20454;-72
2022/11/05 07:51:40;;;;;;;15.97;8.83;;;6.60;99.90;;;;;;4917141;29;20476;-72
2022/11/05 07:54:08;;;;;;;11.33;8.60;;;6.70;99.90;;;;;;4915959;29;20477;-73
2022/11/05 07:56:36;;;;;;;12.00;8.60;;;6.70;99.90;;;;;;4917311;29;20809;-73
2022/11/05 07:59:06;;;;;;;11.67;8.57;;;6.70;99.90;;;;;;4917498;29;20484;-73
2022/11/05 08:01:34;;;;;;;9.47;8.40;;;6.70;99.90;;;;;;4917529;29;20461;-73
2022/11/05 08:04:02;;;;;;;10.17;8.80;;;6.80;99.90;;;;;;4917133;29;20450;-72
2022/11/05 08:06:31;;;;;;;10.33;9.30;;;6.80;99.90;;;;;;4917328;29;20433;-72
2022/11/05 08:08:59;;;;;;;13.23;8.77;;;6.90;99.90;;;;;;4916905;29;20456;-73
2022/11/05 08:11:27;;;;;;;12.70;8.63;;;6.90;99.90;;;;;;4917322;29;20566;-72
2022/11/05 08:13:56;;;;;;;10.90;8.53;;;7.00;99.90;;;;;;4917440;29;20473;-72
2022/11/05 08:16:25;;;;;;;10.10;8.70;;;7.00;99.90;;;;;;4917398;29;20454;-73
2022/11/05 08:18:53;;;;;;;10.40;9.17;;;7.10;99.90;;;;;;4916000;29;20458;-72
2022/11/05 08:21:22;;;;;;;11.43;8.27;;;7.10;99.90;;;;;;4916941;29;20513;-73
2022/11/05 08:23:50;;;;;;;10.70;8.80;;;7.20;99.90;;;;;;4917231;29;20440;-72
2022/11/05 08:26:19;;;;;;;10.27;7.90;;;7.20;99.90;;;;;;4917172;29;20452;-73
2022/11/05 08:28:47;;;;;;;8.43;7.63;;;7.30;99.90;;;;;;4917065;29;20542;-72
2022/11/05 08:31:18;;;;;;;10.10;8.43;;;7.40;99.90;;;;;;4916847;29;20466;-73
2022/11/05 08:33:47;;;;;;;8.80;7.90;;;7.40;99.90;;;;;;4917110;29;20465;-72
2022/11/05 08:36:15;;;;;;;9.83;7.33;;;7.50;99.90;;;;;;4916811;29;20447;-73
2022/11/05 08:38:43;;;;;;;9.77;7.50;;;7.50;99.90;;;;;;4917344;29;20851;-73
2022/11/05 08:41:11;;;;;;;9.70;8.70;;;7.60;99.90;;;;;;4917852;29;20442;-72
2022/11/05 08:43:39;;;;;;;9.10;7.53;;;7.70;99.90;;;;;;4917771;29;20438;-72
2022/11/05 08:46:07;;;;;;;8.90;6.80;;;7.70;99.90;;;;;;4918173;29;20448;-72
2022/11/05 08:48:35;;;;;;;8.50;7.53;;;7.80;99.90;;;;;;4919611;29;20452;-72
2022/11/05 08:51:05;;;;;;;9.70;7.27;;;7.90;99.90;;;;;;4919850;29;20451;-73
2022/11/05 08:53:33;;;;;;;9.27;7.10;;;7.90;99.90;;;;;;4920982;29;20454;-72
2022/11/05 08:56:02;;;;;;;9.23;7.47;;;8.00;99.90;;;;;;4919705;29;20486;-72
2022/11/05 08:58:30;;;;;;;9.43;7.10;;;8.00;99.90;;;;;;4919465;29;20556;-73
2022/11/05 09:00:58;;;;;;;8.93;7.40;;;8.10;99.90;;;;;;4920525;29;20443;-72
2022/11/05 09:03:32;;;;;;;9.93;6.93;;;8.20;99.90;;;;;;4920862;29;20429;-72
2022/11/05 09:06:00;;;;;;;8.33;7.50;;;8.20;99.90;;;;;;4919756;29;20466;-72
2022/11/05 09:08:29;;;;;;;8.57;7.50;;;8.30;99.90;;;;;;4920365;29;20493;-72
2022/11/05 09:10:57;;;;;;;7.70;6.90;;;8.30;99.90;;;;;;4919979;29;20507;-72
2022/11/05 09:13:26;;;;;;;8.27;7.07;;;8.40;99.90;;;;;;4920915;29;20482;-72
2022/11/05 09:15:55;;;;;;;8.67;6.87;;;8.40;99.90;;;;;;4918775;29;20485;-72
2022/11/05 09:18:23;;;;;;;8.23;7.00;;;8.50;99.90;;;;;;4918835;29;20862;-72
2022/11/05 09:20:51;;;;;;;8.03;6.77;;;8.50;99.90;;;;;;4919938;29;20459;-72
2022/11/05 09:23:19;;;;;;;8.40;6.97;;;8.60;99.90;;;;;;4920508;29;20440;-72
2022/11/05 09:25:48;;;;;;;7.70;6.80;;;8.70;99.90;;;;;;4918632;29;20454;-72
2022/11/05 09:28:18;;;;;;;6.90;6.10;;;8.70;99.90;;;;;;4919905;29;20500;-72
2022/11/05 09:30:48;;;;;;;7.73;6.90;;;8.80;99.90;;;;;;4918380;29;20457;-73
2022/11/05 09:33:18;;;;;;;7.50;6.80;;;8.80;99.90;;;;;;4919615;29;20467;-72
2022/11/05 09:35:46;;;;;;;9.20;6.53;;;8.90;99.90;;;;;;4919697;29;20475;-72
2022/11/05 09:38:14;;;;;;;8.60;6.23;;;9.00;99.90;;;;;;4919829;29;20451;-71
2022/11/05 09:40:51;;;;;;;7.10;5.87;;;9.00;99.90;;;;;;4919563;29;20449;-71
2022/11/05 09:43:23;;;;;;;9.93;5.77;;;9.10;99.90;;;;;;4920422;29;20831;-71
2022/11/05 09:46:03;;;;;;;8.17;6.20;;;9.20;99.90;;;;;;4922791;29;20513;-71
2022/11/05 09:48:32;;;;;;;9.50;6.47;;;9.20;99.90;;;;;;4920744;29;20520;-71
2022/11/05 09:51:01;;;;;;;8.93;6.33;;;9.30;99.90;;;;;;4919655;29;20467;-72
2022/11/05 09:53:29;;;;;;;7.97;5.43;;;9.40;99.90;;;;;;4918137;29;20459;-71
2022/11/05 09:56:00;;;;;;;6.77;5.83;;;9.40;99.90;;;;;;4919156;29;20878;-71
2022/11/05 09:58:37;;;;;;;8.60;6.20;;;9.50;99.90;;;;;;4919237;29;20771;-71
2022/11/05 10:01:11;;;;;;;8.40;6.20;;;9.60;99.90;;;;;;4919499;29;20636;-71
2022/11/05 10:03:51;;;;;;;6.40;5.80;;;9.60;99.90;;;;;;4918221;29;20445;-71
2022/11/05 10:06:20;;;;;;;8.23;5.70;;;9.70;99.90;;;;;;4919212;29;20781;-71
2022/11/05 10:08:55;;;;;;;8.33;5.90;;;9.70;99.90;;;;;;4918729;29;20448;-71
2022/11/05 10:11:31;;;;;;;8.33;6.30;;;9.80;99.90;;;;;;4919284;29;20467;-73
2022/11/05 10:14:03;;;;;;;10.87;6.67;;;9.80;99.90;;;;;;4919147;29;20428;-71
2022/11/05 10:16:34;;;;;;;6.13;5.53;;;9.90;99.90;;;;;;4919224;29;20439;-71
2022/11/05 10:19:09;;;;;;;7.73;6.10;;;10.00;99.90;;;;;;4919503;29;20425;-71
2022/11/05 10:21:37;;;;;;;8.53;6.40;;;10.00;99.90;;;;;;4919482;29;20467;-72
2022/11/05 10:24:27;;;;;;;6.43;5.77;;;10.10;99.90;;;;;;4919450;29;20444;-72
2022/11/05 10:26:57;;;;;;;7.60;6.03;;;10.10;99.90;;;;;;4918653;29;20485;-72
2022/11/05 10:29:29;;;;;;;7.80;6.00;;;10.20;99.90;;;;;;4918996;29;20429;-73
2022/11/05 10:31:58;;;;;;;6.57;5.40;;;10.20;99.90;;;;;;4918879;29;20469;-72
2022/11/05 10:34:31;;;;;;;6.17;5.50;;;10.30;99.90;;;;;;4917014;29;20456;-72
2022/11/05 10:37:00;;;;;;;6.60;5.67;;;10.40;99.90;;;;;;4918545;29;20456;-73
2022/11/05 10:39:36;;;;;;;9.67;6.80;;;10.40;99.90;;;;;;4918516;29;20500;-73
2022/11/05 10:42:33;;;;;;;8.83;6.37;;;10.50;99.90;;;;;;4918356;29;20472;-72
2022/11/05 10:45:09;;;;;;;9.50;6.00;;;10.50;99.90;;;;;;4918447;29;20425;-73
2022/11/05 10:47:51;;;;;;;6.87;6.17;;;10.60;99.90;;;;;;4918652;29;20420;-73
2022/11/05 10:50:23;;;;;;;7.60;5.37;;;10.60;99.90;;;;;;4918670;29;20433;-72
2022/11/05 10:52:59;;;;;;;8.03;6.00;;;10.70;99.90;;;;;;4917525;29;20476;-72
2022/11/05 10:55:31;;;;;;;9.30;6.17;;;10.70;99.90;;;;;;4919003;29;20459;-73
2022/11/05 10:58:20;;;;;;;7.23;5.87;;;10.80;99.90;;;;;;4918312;29;20776;-72
2022/11/05 11:01:04;;;;;;;8.00;5.60;;;10.90;99.90;;;;;;4918618;29;20789;-73
2022/11/05 11:03:43;;;;;;;9.30;5.90;;;10.90;99.90;;;;;;4918837;29;20421;-73
2022/11/05 11:06:23;;;;;;;5.87;5.27;;;11.00;99.90;;;;;;4918433;29;20985;-73
2022/11/05 11:08:53;;;;;;;7.03;5.93;;;11.00;99.90;;;;;;4918046;29;20460;-73
2022/11/05 11:11:33;;;;;;;8.30;6.10;;;11.10;99.90;;;;;;4918423;29;20547;-73
2022/11/05 11:14:05;;;;;;;7.20;5.30;;;11.10;99.90;;;;;;4918640;29;20435;-73
2022/11/05 11:16:37;;;;;;;7.60;6.63;;;11.10;99.90;;;;;;4920939;29;20850;-73
2022/11/05 11:19:24;;;;;;;5.90;5.37;;;11.20;99.90;;;;;;4919369;29;20444;-73
2022/11/05 11:22:21;;;;;;;6.93;5.63;;;11.20;99.90;;;;;;4918877;29;20456;-73
2022/11/05 11:24:52;;;;;;;9.50;5.80;;;11.30;99.90;;;;;;4918720;29;20428;-73
2022/11/05 11:27:25;;;;;;;8.07;5.80;;;11.40;99.90;;;;;;4918451;29;20429;-73
2022/11/05 11:29:58;;;;;;;7.80;6.80;;;11.40;99.90;;;;;;4918060;29;20500;-72
2022/11/05 11:32:31;;;;;;;6.60;5.30;;;11.40;99.90;;;;;;4917572;29;20475;-71
2022/11/05 11:35:00;;;;;;;5.73;4.80;;;11.50;99.90;;;;;;4917436;29;20445;-72
2022/11/05 11:37:30;;;;;;;7.80;5.77;;;11.50;99.90;;;;;;4917572;29;21026;-73
2022/11/05 11:40:03;;;;;;;6.80;5.40;;;11.60;99.90;;;;;;4916518;29;20453;-73
2022/11/05 11:42:34;;;;;;;6.47;5.20;;;11.60;99.90;;;;;;4917673;29;20460;-73
2022/11/05 11:45:14;;;;;;;6.63;5.93;;;11.60;99.90;;;;;;4916543;29;20507;-73
2022/11/05 11:47:44;;;;;;;6.33;5.27;;;11.70;99.90;;;;;;4917707;29;20436;-74
2022/11/05 11:50:45;;;;;;;5.83;5.10;;;11.70;99.90;;;;;;4917894;29;20451;-73
2022/11/05 11:53:27;;;;;;;7.10;5.63;;;11.70;99.90;;;;;;4917443;29;20524;-73
2022/11/05 11:56:14;;;;;;;8.30;5.97;;;11.70;99.90;;;;;;4916265;29;20472;-73
2022/11/05 11:58:45;;;;;;;6.47;5.10;;;11.80;99.90;;;;;;4917671;29;20480;-73
2022/11/05 12:01:40;;;;;;;7.93;5.50;;;11.80;99.90;;;;;;4917743;29;20429;-73
2022/11/05 12:04:23;;;;;;;7.07;4.50;;;11.90;99.90;;;;;;4917526;29;20566;-73
2022/11/05 12:07:04;;;;;;;7.37;5.50;;;11.90;99.90;;;;;;4917598;29;20511;-73
2022/11/05 12:09:49;;;;;;;8.73;5.27;;;12.00;99.90;;;;;;4917406;29;20519;-74
2022/11/05 12:12:25;;;;;;;6.30;4.63;;;12.00;99.90;;;;;;4917522;29;20455;-73
2022/11/05 12:14:58;;;;;;;8.47;4.97;;;12.00;99.90;;;;;;4917853;29;20427;-72
2022/11/05 12:17:38;;;;;;;7.23;5.20;;;12.00;99.90;;;;;;4917813;29;20790;-72
2022/11/05 12:20:31;;;;;;;8.53;5.60;;;12.10;99.90;;;;;;4918199;29;20424;-71
2022/11/05 12:23:34;;;;;;;6.53;4.73;;;12.20;99.90;;;;;;4920886;29;20464;-72
2022/11/05 12:26:11;;;;;;;7.47;4.57;;;12.20;99.90;;;;;;4920846;29;20528;-73
2022/11/05 12:28:58;;;;;;;7.10;4.90;;;12.30;99.90;;;;;;4920807;29;20420;-73
2022/11/05 12:31:54;;;;;;;6.23;5.30;;;12.30;99.90;;;;;;4920337;29;20467;-74
2022/11/05 12:34:37;;;;;;;8.77;7.27;;;12.30;99.90;;;;;;4921136;29;20428;-73
2022/11/05 12:37:16;;;;;;;5.70;4.80;;;12.30;99.90;;;;;;4920741;29;20515;-73
2022/11/05 12:40:01;;;;;;;6.70;5.77;;;12.40;99.90;;;;;;4920450;29;20424;-74
2022/11/05 12:42:43;;;;;;;6.97;4.70;;;12.40;99.90;;;;;;4920145;29;20464;-73
2022/11/05 12:45:26;;;;;;;7.30;4.67;;;12.40;99.90;;;;;;4919043;29;20507;-74
2022/11/05 12:48:11;;;;;;;7.07;5.00;;;12.40;99.90;;;;;;4920453;29;20435;-74
2022/11/05 12:50:45;;;;;;;7.27;5.17;;;12.50;99.90;;;;;;4920722;29;20428;-74
2022/11/05 12:53:51;;;;;;;8.07;4.77;;;12.60;99.90;;;;;;4920407;29;20508;-74
2022/11/05 12:56:26;;;;;;;7.70;5.10;;;12.60;99.90;;;;;;4908085;29;20484;-73
2022/11/05 12:59:00;;;;;;;6.70;5.43;;;12.60;99.90;;;;;;4920282;29;20421;-74
2022/11/05 13:01:36;;;;;;;6.00;4.87;;;12.60;99.90;;;;;;4918470;29;20990;-73
2022/11/05 13:04:13;;;;;;;6.83;5.03;;;12.70;99.90;;;;;;4918876;29;20453;-73
2022/11/05 13:06:47;;;;;;;6.50;4.60;;;12.70;99.90;;;;;;4920316;29;20432;-74
2022/11/05 13:09:19;;;;;;;5.30;3.73;;;12.70;99.90;;;;;;4920273;29;20459;-74
2022/11/05 13:11:52;;;;;;;6.30;4.60;;;12.70;99.90;;;;;;4919756;29;20471;-74
2022/11/05 13:14:24;;;;;;;7.53;5.63;;;12.70;99.90;;;;;;4919621;29;20789;-74
2022/11/05 13:16:56;;;;;;;5.30;4.53;;;12.70;99.90;;;;;;4919482;29;20484;-74
2022/11/05 13:19:29;;;;;;;9.50;5.00;;;12.70;99.90;;;;;;4919614;29;20428;-73
2022/11/05 13:22:10;;;;;;;5.77;5.03;;;12.60;99.90;;;;;;4917966;29;20472;-72
2022/11/05 13:24:44;;;;;;;5.00;4.50;;;12.60;99.90;;;;;;4919678;29;20503;-73
2022/11/05 13:27:38;;;;;;;7.00;5.17;;;12.60;99.90;;;;;;4919230;29;20444;-72
2022/11/05 13:30:12;;;;;;;7.50;4.80;;;12.60;99.90;;;;;;4920914;29;20433;-72
2022/11/05 13:32:44;;;;;;;5.63;5.00;;;12.60;99.90;;;;;;4919725;29;20475;-73
2022/11/05 13:35:17;;;;;;;6.37;4.70;;;12.50;99.90;;;;;;4919550;29;20482;-73
2022/11/05 13:40:46;;;;;;;5.67;5.03;;;12.50;99.90;;;;;;4919549;29;20436;-73
2022/11/05 13:43:42;;;;;;;6.00;4.80;;;12.50;99.90;;;;;;4919276;29;20474;-73
2022/11/05 13:46:31;;;;;;;6.50;5.37;;;12.50;99.90;;;;;;4917895;29;20460;-73
2022/11/05 13:49:21;;;;;;;6.90;5.53;;;12.50;99.90;;;;;;4919197;29;20424;-73
2022/11/05 13:51:52;;;;;;;5.83;5.23;;;12.50;99.90;;;;;;4917560;29;20476;-73
2022/11/05 13:54:55;;;;;;;6.27;4.90;;;12.50;99.90;;;;;;4919118;29;20819;-73
2022/11/05 13:57:41;;;;;;;5.77;4.73;;;12.40;99.90;;;;;;4918881;29;20491;-74
2022/11/05 14:00:17;;;;;;;7.23;5.40;;;12.40;99.90;;;;;;4918873;29;20412;-74
2022/11/05 14:02:49;;;;;;;7.67;5.57;;;12.40;99.90;;;;;;4918638;29;21000;-73
2022/11/05 14:05:28;;;;;;;6.73;4.60;;;12.50;99.90;;;;;;4917469;29;20445;-73